TimeEST,TemperatureF,Dew PointF,Humidity,Sea Level PressureIn,VisibilityMPH,Wind Direction,Wind SpeedMPH,Gust SpeedMPH,PrecipitationIn,Events,Conditions,WindDirDegrees,DateUTC
12:53 AM,17.1,5.0,59,29.67,10.0,SW,19.6,25.3,N/A,,Overcast,230,2014-02-27 05:53:00
1:50 AM,17.6,8.6,68,29.60,3.0,WSW,19.6,29.9,0.00,Snow,Light Snow,240,2014-02-27 06:50:00
1:53 AM,17.1,9.0,71,29.65,3.0,WSW,25.3,32.2,0.00,Snow,Light Snow,250,2014-02-27 06:53:00
2:24 AM,18.0,9.0,68,29.59,10.0,WSW,17.3,-,0.00,,Overcast,240,2014-02-27 07:24:00
2:53 AM,19.0,8.1,62,29.62,10.0,West,20.7,27.6,0.00,,Overcast,260,2014-02-27 07:53:00
3:11 AM,19.0,10.0,68,29.59,2.5,West,27.6,36.8,0.00,Snow,Light Snow,260,2014-02-27 08:11:00
3:21 AM,18.0,10.9,74,29.59,3.0,West,21.9,-,0.00,Snow,Light Snow,270,2014-02-27 08:21:00
3:23 AM,18.0,10.9,74,29.59,1.8,West,23.0,-,0.00,Snow,Light Snow,270,2014-02-27 08:23:00
3:50 AM,17.6,10.4,73,29.59,3.0,West,20.7,-,0.00,Snow,Light Snow,280,2014-02-27 08:50:00
3:53 AM,17.1,10.9,77,29.64,5.0,West,19.6,-,0.00,Snow,Light Snow,280,2014-02-27 08:53:00
4:03 AM,17.1,10.0,74,29.60,10.0,West,17.3,-,0.00,,Scattered Clouds,280,2014-02-27 09:03:00
4:14 AM,17.1,8.1,68,29.60,6.0,West,15.0,26.5,0.00,Snow,Light Snow,280,2014-02-27 09:14:00
4:46 AM,17.1,10.9,77,29.62,1.5,West,19.6,-,0.00,Snow,Light Snow,280,2014-02-27 09:46:00
4:49 AM,17.6,10.4,73,29.62,0.5,WNW,24.2,28.8,0.00,Snow,Snow,290,2014-02-27 09:49:00
4:53 AM,17.1,12.0,81,29.67,0.5,West,20.7,28.8,0.00,Snow,Snow,280,2014-02-27 09:53:00
5:00 AM,17.1,12.9,84,29.63,1.0,West,21.9,-,0.00,Snow,Light Snow,280,2014-02-27 10:00:00
5:22 AM,16.0,12.0,84,29.65,0.5,NW,20.7,26.5,0.00,Fog-Snow,Snow,310,2014-02-27 10:22:00
5:30 AM,16.0,12.0,84,29.66,0.2,NW,19.6,26.5,0.00,Fog-Snow,Snow,320,2014-02-27 10:30:00
5:53 AM,14.0,10.0,84,29.73,0.8,NW,17.3,-,0.00,Snow,Light Snow,310,2014-02-27 10:53:00
6:02 AM,14.0,8.1,77,29.69,1.2,NW,18.4,31.1,0.00,Snow,Light Snow,310,2014-02-27 11:02:00
6:14 AM,14.0,8.1,77,29.70,0.8,NW,18.4,28.8,0.00,Snow,Light Snow,320,2014-02-27 11:14:00
6:28 AM,12.9,9.0,84,29.71,0.5,WNW,15.0,-,0.00,Fog-Snow,Snow,300,2014-02-27 11:28:00
6:41 AM,12.9,8.1,81,29.72,0.8,WNW,16.1,-,0.00,Snow,Light Snow,300,2014-02-27 11:41:00
6:44 AM,12.9,9.0,84,29.72,0.5,WNW,16.1,-,0.00,Fog-Snow,Snow,300,2014-02-27 11:44:00
6:53 AM,12.9,8.1,81,29.78,0.8,WNW,21.9,28.8,0.00,Snow,Light Snow,290,2014-02-27 11:53:00
7:07 AM,12.0,8.1,84,29.74,0.2,WNW,19.6,28.8,0.00,Fog-Snow,Heavy Snow,300,2014-02-27 12:07:00
7:53 AM,10.9,6.1,81,29.84,0.2,WNW,20.7,-,0.00,Snow,Heavy Snow,300,2014-02-27 12:53:00
8:03 AM,10.0,3.0,73,29.80,0.2,NW,27.6,32.2,0.00,Snow,Heavy Snow,310,2014-02-27 13:03:00
8:14 AM,9.0,1.0,70,29.81,0.2,NW,24.2,32.2,0.00,,Scattered Clouds,310,2014-02-27 13:14:00
8:25 AM,9.0,-0.0,67,29.83,0.8,NW,25.3,-,0.00,,Unknown,310,2014-02-27 13:25:00
8:31 AM,9.0,1.0,70,29.83,0.5,NW,21.9,31.1,0.00,Snow,Snow,310,2014-02-27 13:31:00
8:37 AM,9.0,1.0,70,29.84,0.8,WNW,21.9,29.9,0.00,,Mostly Cloudy,300,2014-02-27 13:37:00
8:53 AM,9.0,1.9,73,29.90,1.0,WNW,16.1,28.8,0.00,Snow,Light Snow,300,2014-02-27 13:53:00
9:08 AM,9.0,3.0,77,29.86,2.0,WNW,18.4,-,0.00,,Haze,290,2014-02-27 14:08:00
9:20 AM,10.0,3.0,73,29.87,4.0,WNW,19.6,-,0.00,,Haze,300,2014-02-27 14:20:00
9:36 AM,10.0,1.9,70,29.88,1.8,NW,24.2,28.8,0.00,,Haze,310,2014-02-27 14:36:00
9:47 AM,10.4,1.4,67,29.89,2.0,WNW,20.7,28.8,0.00,,Haze,300,2014-02-27 14:47:00
9:53 AM,10.9,1.9,67,29.94,2.5,NW,23.0,28.8,0.00,,Haze,310,2014-02-27 14:53:00
9:57 AM,10.9,1.9,67,29.90,0.8,NW,26.5,35.7,0.00,,Mostly Cloudy,310,2014-02-27 14:57:00
9:59 AM,10.9,1.9,67,29.90,0.5,NW,26.5,35.7,0.00,,Mostly Cloudy,310,2014-02-27 14:59:00
10:15 AM,10.9,1.9,67,29.91,0.8,NW,24.2,31.1,0.00,Snow,Light Snow,310,2014-02-27 15:15:00
10:31 AM,10.9,1.0,64,29.92,1.2,NW,19.6,-,0.00,,Haze,310,2014-02-27 15:31:00
10:39 AM,10.9,1.9,67,29.93,1.5,WNW,19.6,-,0.00,,Haze,300,2014-02-27 15:39:00
10:47 AM,10.4,1.4,67,29.94,3.0,NW,18.4,24.2,0.00,,Haze,320,2014-02-27 15:47:00
10:53 AM,10.9,-2.0,56,29.99,2.0,NW,20.7,28.8,0.00,,Haze,320,2014-02-27 15:53:00
11:06 AM,10.9,-0.9,59,29.95,4.0,NW,17.3,28.8,N/A,,Haze,310,2014-02-27 16:06:00
11:14 AM,10.9,-0.9,59,29.96,1.8,NW,25.3,32.2,N/A,,Haze,320,2014-02-27 16:14:00
11:23 AM,12.0,-0.9,56,29.96,3.0,NW,16.1,-,0.00,,Mostly Cloudy,320,2014-02-27 16:23:00
11:41 AM,10.9,1.0,64,29.98,1.5,WNW,23.0,-,0.00,Snow,Light Snow,300,2014-02-27 16:41:00
11:53 AM,10.9,-0.9,59,30.04,2.5,NW,20.7,-,0.00,Snow,Light Snow,310,2014-02-27 16:53:00
12:00 PM,12.0,-0.9,56,29.99,5.0,WNW,19.6,26.5,0.00,,Haze,300,2014-02-27 17:00:00
12:03 PM,10.9,1.0,64,29.99,1.8,NW,17.3,26.5,0.00,Snow,Light Snow,320,2014-02-27 17:03:00
12:13 PM,10.9,3.0,70,30.00,0.8,NNW,13.8,-,0.00,Snow,Light Snow,330,2014-02-27 17:13:00
12:21 PM,10.9,3.9,73,30.00,1.0,NNW,12.7,-,0.00,Snow,Light Snow,340,2014-02-27 17:21:00
12:45 PM,10.0,1.0,67,30.01,0.8,NNW,18.4,-,0.00,Snow,Light Snow,330,2014-02-27 17:45:00
12:53 PM,10.9,1.0,64,30.06,2.5,NW,15.0,24.2,0.00,,Haze,320,2014-02-27 17:53:00
1:01 PM,10.9,3.0,70,30.02,0.8,NNW,15.0,23.0,0.00,Snow,Light Snow,330,2014-02-27 18:01:00
1:08 PM,10.9,3.9,73,30.02,0.5,NW,11.5,-,0.00,Snow,Snow,310,2014-02-27 18:08:00
1:15 PM,10.9,3.0,70,30.02,0.8,NW,19.6,25.3,0.00,Snow,Light Snow,320,2014-02-27 18:15:00
1:26 PM,10.0,1.9,70,30.02,1.0,NW,17.3,-,0.00,Snow,Light Snow,310,2014-02-27 18:26:00
1:30 PM,10.9,3.0,70,30.03,2.0,NW,18.4,-,0.00,Snow,Light Snow,310,2014-02-27 18:30:00
1:38 PM,10.9,1.0,64,30.03,3.0,NW,19.6,-,0.00,,Haze,310,2014-02-27 18:38:00
1:45 PM,12.0,1.9,64,30.02,1.8,NW,18.4,-,0.00,Snow,Light Snow,310,2014-02-27 18:45:00
1:49 PM,10.4,3.2,73,30.03,0.5,NW,18.4,-,0.00,Snow,Snow,320,2014-02-27 18:49:00
1:53 PM,10.9,3.9,73,30.08,0.2,NW,15.0,-,0.00,Snow,Heavy Snow,310,2014-02-27 18:53:00
2:08 PM,10.9,3.0,70,30.03,0.8,North,11.5,-,0.00,Snow,Light Snow,350,2014-02-27 19:08:00
2:17 PM,10.0,5.0,80,30.04,0.2,NNW,16.1,-,0.00,Snow,Heavy Snow,340,2014-02-27 19:17:00
2:35 PM,10.9,3.0,70,30.04,0.8,NW,13.8,-,0.00,Snow,Light Snow,320,2014-02-27 19:35:00
2:39 PM,10.9,1.9,67,30.04,2.0,NW,17.3,-,0.00,Snow,Light Snow,320,2014-02-27 19:39:00
2:53 PM,10.9,1.0,64,30.09,1.5,NW,12.7,25.3,0.00,Snow,Light Snow,320,2014-02-27 19:53:00
2:57 PM,10.9,1.0,64,30.05,2.0,WNW,16.1,-,0.00,Snow,Light Snow,300,2014-02-27 19:57:00
3:05 PM,10.9,1.0,64,30.05,8.0,NW,10.4,-,0.00,,Mostly Cloudy,310,2014-02-27 20:05:00
3:53 PM,12.0,-0.0,59,30.11,3.0,NNW,17.3,-,0.00,Snow,Light Snow,340,2014-02-27 20:53:00
4:53 PM,10.9,-0.0,61,30.14,5.0,NW,15.0,-,0.00,Snow,Light Snow,320,2014-02-27 21:53:00
5:00 PM,10.0,1.0,67,30.09,2.0,NW,11.5,-,0.00,Snow,Light Snow,320,2014-02-27 22:00:00
5:07 PM,10.9,1.9,67,30.09,1.2,NNW,9.2,-,0.00,Snow,Light Snow,330,2014-02-27 22:07:00
5:15 PM,10.9,3.0,70,30.09,3.0,NNW,9.2,-,0.00,Snow,Light Snow,330,2014-02-27 22:15:00
5:53 PM,10.9,1.9,67,30.15,6.0,NNW,9.2,-,0.00,Snow,Light Snow,340,2014-02-27 22:53:00
6:20 PM,9.0,-2.0,61,30.11,10.0,NW,6.9,-,0.00,,Scattered Clouds,320,2014-02-27 23:20:00
6:53 PM,6.1,-2.9,67,30.18,10.0,NW,5.8,-,0.00,,Clear,310,2014-02-27 23:53:00
7:53 PM,3.9,-2.9,73,30.21,10.0,NW,3.5,-,N/A,,Clear,310,2014-02-28 00:53:00
8:53 PM,5.0,-2.0,73,30.22,10.0,Calm,Calm,-,N/A,,Clear,0,2014-02-28 01:53:00
9:53 PM,1.9,-2.9,80,30.23,10.0,Calm,Calm,-,N/A,,Clear,0,2014-02-28 02:53:00
10:53 PM,1.0,-4.0,79,30.23,10.0,Calm,Calm,-,N/A,,Clear,0,2014-02-28 03:53:00
11:53 PM,-0.9,-6.0,79,30.25,10.0,Calm,Calm,-,N/A,,Clear,0,2014-02-28 04:53:00